地図

経路データ

SID SEASON NUMBER BASIN SUBBASIN NAME ISO_TIME NATURE LAT LON WMO_WIND WMO_PRES WMO_AGENCY TRACK_TYPE DIST2LAND LANDFALL IFLAG USA_AGENCY USA_ATCF_ID USA_LAT USA_LON USA_RECORD USA_STATUS USA_WIND USA_PRES USA_SSHS USA_R34_NE USA_R34_SE USA_R34_SW USA_R34_NW USA_R50_NE USA_R50_SE USA_R50_SW USA_R50_NW USA_R64_NE USA_R64_SE USA_R64_SW USA_R64_NW USA_POCI USA_ROCI USA_RMW USA_EYE TOKYO_LAT TOKYO_LON TOKYO_GRADE TOKYO_WIND TOKYO_PRES TOKYO_R50_DIR TOKYO_R50_LONG TOKYO_R50_SHORT TOKYO_R30_DIR TOKYO_R30_LONG TOKYO_R30_SHORT TOKYO_LAND CMA_LAT CMA_LON CMA_CAT CMA_WIND CMA_PRES HKO_LAT HKO_LON HKO_CAT HKO_WIND HKO_PRES NEWDELHI_LAT NEWDELHI_LON NEWDELHI_GRADE NEWDELHI_WIND NEWDELHI_PRES NEWDELHI_CI NEWDELHI_DP NEWDELHI_POCI REUNION_LAT REUNION_LON REUNION_TYPE REUNION_WIND REUNION_PRES REUNION_TNUM REUNION_CI REUNION_RMW REUNION_R34_NE REUNION_R34_SE REUNION_R34_SW REUNION_R34_NW REUNION_R50_NE REUNION_R50_SE REUNION_R50_SW REUNION_R50_NW REUNION_R64_NE REUNION_R64_SE REUNION_R64_SW REUNION_R64_NW BOM_LAT BOM_LON BOM_TYPE BOM_WIND BOM_PRES BOM_TNUM BOM_CI BOM_RMW BOM_R34_NE BOM_R34_SE BOM_R34_SW BOM_R34_NW BOM_R50_NE BOM_R50_SE BOM_R50_SW BOM_R50_NW BOM_R64_NE BOM_R64_SE BOM_R64_SW BOM_R64_NW BOM_ROCI BOM_POCI BOM_EYE BOM_POS_METHOD BOM_PRES_METHOD NADI_LAT NADI_LON NADI_CAT NADI_WIND NADI_PRES WELLINGTON_LAT WELLINGTON_LON WELLINGTON_WIND WELLINGTON_PRES DS824_LAT DS824_LON DS824_STAGE DS824_WIND DS824_PRES TD9636_LAT TD9636_LON TD9636_STAGE TD9636_WIND TD9636_PRES TD9635_LAT TD9635_LON TD9635_WIND TD9635_PRES TD9635_ROCI NEUMANN_LAT NEUMANN_LON NEUMANN_CLASS NEUMANN_WIND NEUMANN_PRES MLC_LAT MLC_LON MLC_CLASS MLC_WIND MLC_PRES USA_GUST BOM_GUST BOM_GUST_PER REUNION_GUST REUNION_GUST_PER USA_SEAHGT USA_SEARAD_NE USA_SEARAD_SE USA_SEARAD_SW USA_SEARAD_NW STORM_SPEED STORM_DIR
1985199N08143 1985 54 WP MM JEFF 1985-07-18 00:00:00 NR 8.40000 142.700 main 1226 1226 __________O___ -1 8.40000 142.700 0 9 38
1985199N08143 1985 54 WP MM JEFF 1985-07-18 03:00:00 NR 8.76741 142.995 main 1280 1280 __________P___ -1 8.76741 142.995 0 9 38
1985199N08143 1985 54 WP MM JEFF 1985-07-18 06:00:00 NR 9.13776 143.282 main 1307 1307 __________P___ -1 9.13776 143.282 0 9 36
1985199N08143 1985 54 WP MM JEFF 1985-07-18 09:00:00 NR 9.51422 143.553 main 1341 1341 __________P___ -1 9.51422 143.553 0 9 34
1985199N08143 1985 54 WP MM JEFF 1985-07-18 12:00:00 NR 9.90000 143.800 main 1379 1379 __________O___ -1 9.90000 143.800 0 9 30
1985199N08143 1985 54 WP MM JEFF 1985-07-18 15:00:00 NR 10.2968 144.016 main 1418 1418 __________P___ -1 10.2968 144.016 0 9 26
1985199N08143 1985 54 WP MM JEFF 1985-07-18 18:00:00 NR 10.6999 144.203 main 1458 1458 __________P___ -1 10.6999 144.203 0 9 23
1985199N08143 1985 54 WP MM JEFF 1985-07-18 21:00:00 NR 11.1031 144.363 main 1498 1498 __________P___ -1 11.1031 144.363 0 9 20
1985199N08143 1985 54 WP MM JEFF 1985-07-19 00:00:00 NR 11.5000 144.500 main 1541 1541 __________O___ -1 11.5000 144.500 0 8 19
1985199N08143 1985 54 WP MM JEFF 1985-07-19 03:00:00 NR 11.8700 144.630 main 1584 1584 __________P___ -1 11.8700 144.630 0 8 18
1985199N08143 1985 54 WP MM JEFF 1985-07-19 06:00:00 NR 12.2350 144.738 main 1615 1615 __________P___ -1 12.2350 144.738 0 8 15
1985199N08143 1985 54 WP MM JEFF 1985-07-19 09:00:00 NR 12.6075 144.827 main 1658 1658 __________P___ -1 12.6075 144.827 0 8 12
1985199N08143 1985 54 WP MM JEFF 1985-07-19 12:00:00 NR 13.0000 144.900 main 1702 1702 __________O___ -1 13.0000 144.900 0 8 9
1985199N08143 1985 54 WP MM JEFF 1985-07-19 15:00:00 NR 13.4041 144.953 main 1745 1745 __________P___ -1 13.4041 144.953 0 8 6
1985199N08143 1985 54 WP MM JEFF 1985-07-19 18:00:00 NR 13.8325 144.993 main 1790 1790 __________P___ -1 13.8325 144.993 0 9 5
1985199N08143 1985 54 WP MM JEFF 1985-07-19 21:00:00 NR 14.2947 145.037 main 1845 1845 __________P___ -1 14.2947 145.037 0 10 6
1985199N08143 1985 54 WP MM JEFF 1985-07-20 00:00:00 NR 14.8000 145.100 main 1900 1900 __________O___ -1 14.8000 145.100 0 11 9
1985199N08143 1985 54 WP MM JEFF 1985-07-20 03:00:00 NR 15.3651 145.207 main 1966 1966 __________P___ -1 15.3651 145.207 0 12 11
1985199N08143 1985 54 WP MM JEFF 1985-07-20 06:00:00 NR 15.9701 145.335 main 2032 2032 __________P___ -1 15.9701 145.335 0 13 12
1985199N08143 1985 54 WP MM JEFF 1985-07-20 09:00:00 NR 16.5901 145.470 main 2098 2056 __________P___ -1 16.5901 145.470 0 13 12
1985199N08143 1985 54 WP MM JEFF 1985-07-20 12:00:00 NR 17.2000 145.600 main 2056 2004 __________O___ -1 17.2000 145.600 0 12 11
1985199N08143 1985 54 WP MM JEFF 1985-07-20 15:00:00 NR 17.7805 145.711 main 1994 1943 __________P___ -1 17.7805 145.711 0 12 10
1985199N08143 1985 54 WP MM JEFF 1985-07-20 18:00:00 NR 18.3449 145.815 main 1943 1881 __________P___ -1 18.3449 145.815 0 11 10
1985199N08143 1985 54 WP MM JEFF 1985-07-20 21:00:00 NR 18.8868 145.911 main 1881 1831 __________P___ -1 18.8868 145.911 0 11 9
1985199N08143 1985 54 WP MM JEFF 1985-07-21 00:00:00 NR 19.4000 146.000 main 1831 1781 O_________O___ jtwc_wp WP071985 19.4000 146.000 20 -1 19.4000 146.000 1 20 10 10
1985199N08143 1985 54 WP MM JEFF 1985-07-21 03:00:00 NR 19.9014 146.103 main 1781 1743 P_________P___ WP071985 19.9225 146.105 22 -1 19.8909 146.102 1 21 10 11
1985199N08143 1985 54 WP MM JEFF 1985-07-21 06:00:00 NR 20.3728 146.197 main 1732 1693 O_________P___ jtwc_wp WP071985 20.4000 146.200 25 -1 20.3524 146.195 1 22 9 10
1985199N08143 1985 54 WP MM JEFF 1985-07-21 09:00:00 NR 20.7976 146.269 main 1693 1683 P_________P___ WP071985 20.8075 146.272 25 -1 20.7878 146.265 1 23 6 12
1985199N08143 1985 54 WP MM JEFF 1985-07-21 12:00:00 TS 20.9556 146.322 1006 tokyo main 1673 1641 OO________O___ jtwc_wp WP071985 21.2000 146.300 25 -1 19.0000 146.500 2 1006 0 0 0 21.2000 146.300 1 25 5 7
1985199N08143 1985 54 WP MM JEFF 1985-07-21 15:00:00 TS 21.3187 146.346 main 1641 1589 PP________P___ WP071985 21.6650 146.265 27 -1 19.9975 146.576 2 1005 0 0 21.6330 146.311 1 27 8 0
1985199N08143 1985 54 WP MM JEFF 1985-07-21 18:00:00 TS 21.7781 146.312 1004 tokyo main 1589 1544 OO________P___ jtwc_wp WP071985 22.1000 146.200 30 -1 21.0000 146.500 2 1004 0 0 0 22.0398 146.283 1 30 10 351
1985199N08143 1985 54 WP MM JEFF 1985-07-21 21:00:00 TS 22.2698 146.187 main 1533 1480 PP________P___ WP071985 22.4375 146.165 32 -1 21.9702 146.181 2 1003 0 0 22.4017 146.214 1 32 10 337
1985199N08143 1985 54 WP MM JEFF 1985-07-22 00:00:00 TS 22.6929 145.900 1002 tokyo main 1480 1452 OOOO______O___ jtwc_wp WP071985 22.7000 146.100 35 0 22.7000 145.800 2 1002 0 0 0 22.5000 145.000 1 29 1002 22.8000 145.600 TD 25 1002 22.7000 146.100 2 35 8 324
1985199N08143 1985 54 WP MM JEFF 1985-07-22 03:00:00 TS 22.9133 145.689 main 1452 1434 PPPP______P___ WP071985 22.9300 145.980 35 0 23.0124 145.547 2 1002 0 0 22.6975 145.110 1 29 1002 22.9025 145.553 TD 27 1000 22.9110 145.899 2 36 5 316
1985199N08143 1985 54 WP MM JEFF 1985-07-22 06:00:00 TS 23.0412 145.531 1002 tokyo main 1434 1410 OOOO______P___ jtwc_wp WP071985 23.1000 145.800 35 0 23.1000 145.400 2 1002 0 0 0 22.9000 145.200 1 29 1002 23.0000 145.500 TD 30 998 23.0605 145.663 2 37 4 314
1985199N08143 1985 54 WP MM JEFF 1985-07-22 09:00:00 TS 23.1619 145.410 main 1410 1396 PPPP______P___ WP071985 23.2151 145.535 37 0 23.2150 145.370 2 1001 0 0 23.1075 145.258 1 29 1001 23.0925 145.443 TD 30 996 23.1797 145.446 2 38 3 324
1985199N08143 1985 54 WP MM JEFF 1985-07-22 12:00:00 TS 23.2800 145.340 35 1000 tokyo main 1396 1385 OOOO______O___ jtwc_wp WP071985 23.3000 145.300 40 0 23.3000 145.400 3 35 1000 0 9 80 80 0 23.3000 145.300 1 29 1000 23.2000 145.400 TD 30 995 23.3000 145.300 2 40 3 340
1985199N08143 1985 54 WP MM JEFF 1985-07-22 15:00:00 TS 23.3965 145.312 main 1385 1375 PPPP______P___ WP071985 23.3774 145.183 42 0 23.3850 145.393 3 35 997 0 9 80 80 23.4500 145.343 1 33 997 23.3350 145.378 TD 35 993 23.4350 145.264 2 43 3 0
1985199N08143 1985 54 WP MM JEFF 1985-07-22 18:00:00 TS 23.5364 145.342 35 994 tokyo main 1375 1358 OOOO______P___ jtwc_wp WP071985 23.5000 145.200 45 0 23.5000 145.400 3 35 994 0 9 80 80 0 23.6000 145.400 2 38 995 23.5000 145.400 TS 40 991 23.5821 145.308 2 47 3 17
1985199N08143 1985 54 WP MM JEFF 1985-07-22 21:00:00 TS 23.7156 145.420 main 1358 1341 PPPP______P___ WP071985 23.7125 145.348 50 0 23.6549 145.398 3 42 992 0 9 80 80 23.7699 145.470 2 43 991 23.6774 145.463 TS 45 989 23.7631 145.423 2 51 5 27
1985199N08143 1985 54 WP MM JEFF 1985-07-23 00:00:00 TS 23.9600 145.580 50 990 tokyo main 1334 1312 OOOO______O___ jtwc_wp WP071985 24.0000 145.600 55 0 23.9000 145.500 4 50 990 0 9 80 80 0 24.0000 145.600 3 48 987 23.9000 145.600 STS 50 988 24.0000 145.600 2 55 7 34
1985199N08143 1985 54 WP MM JEFF 1985-07-23 03:00:00 TS 24.2874 145.836 main 1312 1294 PPPP______P___ WP071985 24.3276 145.892 57 0 24.2777 145.820 4 52 987 0 9 120 80 24.3200 145.813 3 53 986 24.1775 145.820 STS 52 987 24.3342 145.837 2 56 9 36
1985199N08143 1985 54 WP MM JEFF 1985-07-23 06:00:00 TS 24.6641 146.145 55 985 tokyo main 1284 1268 OOOO______P___ jtwc_wp WP071985 24.7000 146.200 60 0 24.7000 146.200 4 55 985 9 30 30 2 160 80 0 24.7000 146.100 3 58 986 24.5000 146.100 STS 55 986 24.7207 146.126 2 57 9 36
1985199N08143 1985 54 WP MM JEFF 1985-07-23 09:00:00 TS 25.0503 146.443 main 1258 1244 PPPP______P___ WP071985 25.1150 146.465 60 0 25.0649 146.480 4 57 985 9 30 30 2 155 90 25.1075 146.427 3 58 986 24.8426 146.415 STS 57 985 25.1217 146.427 2 58 9 35
1985199N08143 1985 54 WP MM JEFF 1985-07-23 12:00:00 TS 25.4200 146.720 60 985 tokyo main 1244 1225 OOOO______O___ jtwc_wp WP071985 25.5000 146.700 60 0 25.4000 146.700 4 60 985 9 30 30 2 150 100 0 25.5000 146.800 3 58 986 25.2000 146.700 STS 60 985 25.5000 146.700 2 60 8 35
1985199N08143 1985 54 WP MM JEFF 1985-07-23 15:00:00 TS 25.7257 146.971 main 1230 1207 PPPP______P___ WP071985 25.7650 146.923 60 0 25.7074 146.873 4 60 985 9 30 30 2 155 90 25.8152 147.245 3 58 986 25.5574 146.880 STS 60 985 25.7833 146.935 2 58 7 34
1985199N08143 1985 54 WP MM JEFF 1985-07-23 18:00:00 TS 26.0084 147.165 60 985 tokyo main 1213 1190 OOOO______P___ jtwc_wp WP071985 26.0000 147.100 60 0 26.0000 147.000 4 60 985 9 30 30 2 160 80 0 26.1000 147.600 3 58 986 25.9000 147.000 STS 60 985 26.0423 147.127 2 57 6 27
1985199N08143 1985 54 WP MM JEFF 1985-07-23 21:00:00 TS 26.2845 147.288 main 1190 1162 PPPP______P___ WP071985 26.2625 147.230 57 0 26.2775 147.115 4 60 985 9 35 35 2 167 90 26.3848 147.725 3 58 986 26.1925 147.115 STS 57 985 26.3051 147.256 2 56 6 15
1985199N08143 1985 54 WP MM JEFF 1985-07-24 00:00:00 TS 26.6000 147.340 60 985 tokyo main 1162 1130 OOOO______O___ jtwc_wp WP071985 26.6000 147.300 55 0 26.6000 147.200 4 60 985 9 40 40 2 175 100 0 26.7000 147.700 3 58 986 26.5000 147.200 STS 55 985 26.6000 147.300 2 55 8 6
1985199N08143 1985 54 WP MM JEFF 1985-07-24 03:00:00 TS 27.0319 147.381 main 1130 1079 PPPP______P___ WP071985 27.0999 147.360 55 0 27.0499 147.317 4 57 985 9 40 40 2 175 100 27.0925 147.630 3 58 985 26.8849 147.310 STS 55 985 27.0325 147.286 2 55 9 0
1985199N08143 1985 54 WP MM JEFF 1985-07-24 06:00:00 TS 27.4778 147.316 55 985 tokyo main 1079 1031 OOOO______P___ jtwc_wp WP071985 27.6000 147.300 55 0 27.5000 147.300 4 55 985 9 40 40 2 175 100 0 27.5000 147.500 3 58 985 27.3000 147.300 STS 55 985 27.4891 147.182 2 55 9 344
1985199N08143 1985 54 WP MM JEFF 1985-07-24 09:00:00 TS 27.8826 147.113 main 1031 986 PPPP______P___ WP071985 27.9749 147.068 55 0 27.8750 147.026 4 55 985 9 40 40 2 175 100 27.9022 147.410 3 58 985 27.7600 147.076 STS 52 985 27.9011 146.987 2 55 8 325
1985199N08143 1985 54 WP MM JEFF 1985-07-24 12:00:00 TS 28.1600 146.780 55 985 tokyo main 986 964 OOOO______O___ jtwc_wp WP071985 28.2000 146.700 55 0 28.1000 146.600 4 55 985 9 40 40 2 175 100 0 28.2000 147.200 3 58 985 28.1000 146.700 STS 50 985 28.2000 146.700 2 55 7 297
1985199N08143 1985 54 WP MM JEFF 1985-07-24 15:00:00 TS 28.2254 146.364 main 964 937 PPPP______P___ WP071985 28.2525 146.272 52 0 28.0950 146.164 4 52 985 9 2 162 100 28.3174 146.783 3 53 985 28.1600 146.272 STS 47 985 28.3019 146.331 2 52 8 271
1985199N08143 1985 54 WP MM JEFF 1985-07-24 18:00:00 TS 28.1772 145.876 50 985 tokyo main 937 919 OOOO______P___ jtwc_wp WP071985 28.2000 145.800 50 0 28.0000 145.700 4 50 985 0 1 150 100 0 28.3000 146.200 3 48 985 28.1000 145.800 TS 45 985 28.2859 145.881 2 50 9 264
1985199N08143 1985 54 WP MM JEFF 1985-07-24 21:00:00 TS 28.1321 145.344 main 914 893 PPPP______P___ WP071985 28.1575 145.327 47 0 27.9852 145.205 4 50 985 0 1 150 100 28.2159 145.462 3 48 986 28.1000 145.335 TS 42 986 28.2018 145.390 2 47 9 264
1985199N08143 1985 54 WP MM JEFF 1985-07-25 00:00:00 TS 28.0800 144.860 50 985 tokyo main 893 879 OOOO______O___ jtwc_wp WP071985 28.1000 144.900 45 0 28.0000 144.800 4 50 985 0 1 150 100 0 28.1000 144.800 3 48 987 28.1000 144.900 TS 40 987 28.1000 144.900 2 45 7 265
1985199N08143 1985 54 WP MM JEFF 1985-07-25 03:00:00 TS 28.0736 144.578 main 879 865 PPPP______P___ WP071985 28.0494 144.615 45 0 28.0718 144.673 4 47 987 0 1 162 100 28.0564 144.543 3 48 987 28.1147 144.550 TS 37 987 28.0760 144.509 2 43 5 266
1985199N08143 1985 54 WP MM JEFF 1985-07-25 06:00:00 TS 28.0485 144.284 45 990 tokyo main 875 853 OOOO______P___ jtwc_wp WP071985 28.0000 144.300 45 0 28.1000 144.500 3 45 990 0 8 175 100 0 28.0000 144.300 3 48 988 28.1000 144.200 TS 35 988 28.0426 144.119 2 42 7 261
1985199N08143 1985 54 WP MM JEFF 1985-07-25 09:00:00 TS 27.9626 143.800 main 853 844 PPPP______P___ WP071985 27.9651 143.795 42 0 27.9877 143.982 3 45 990 0 8 175 100 27.8351 143.724 3 43 989 28.0370 143.803 TS 32 989 27.9881 143.694 2 41 10 258
1985199N08143 1985 54 WP MM JEFF 1985-07-25 12:00:00 TS 27.8400 143.200 45 990 tokyo main 851 838 OOOO______O___ jtwc_wp WP071985 27.9000 143.200 40 0 27.8000 143.300 3 45 990 0 8 175 100 0 27.7000 143.000 2 38 990 27.9000 143.300 TD 30 990 27.9000 143.200 2 40 11 257
1985199N08143 1985 54 WP MM JEFF 1985-07-25 15:00:00 TS 27.6981 142.545 main 840 834 PPPP______P___ WP071985 27.7720 142.630 37 0 27.5847 142.622 3 42 991 0 8 162 90 27.7503 142.236 2 38 991 27.6426 142.637 TD 27 991 27.7410 142.599 2 37 12 256
1985199N08143 1985 54 WP MM JEFF 1985-07-25 18:00:00 TS 27.5501 141.846 40 992 tokyo main 831 829 OOOO______P___ jtwc_wp WP071985 27.6000 142.000 35 0 27.4000 141.900 3 40 992 0 1 150 80 0 27.8000 141.500 2 38 992 27.4000 141.900 TD 25 992 27.5504 141.930 2 35 13 257
1985199N08143 1985 54 WP MM JEFF 1985-07-25 21:00:00 TS 27.4112 141.147 main 832 815 PPPP______P___ WP071985 27.3852 141.257 32 -1 27.3201 141.135 3 992 0 1 27.6793 140.927 2 33 992 27.3123 141.193 TD 25 992 27.3594 141.221 2 32 13 259
1985199N08143 1985 54 WP MM JEFF 1985-07-26 00:00:00 TS 27.3000 140.460 992 tokyo main 815 785 OOOO______O___ jtwc_wp WP071985 27.2000 140.500 30 -1 27.3000 140.400 2 992 0 0 0 27.5000 140.400 1 29 992 27.3000 140.500 TD 25 992 27.2000 140.500 1 30 12 262
1985199N08143 1985 54 WP MM JEFF 1985-07-26 03:00:00 TS 27.2484 139.840 main 790 764 PPPP______P___ WP071985 27.1268 139.851 27 -1 27.3138 139.823 2 992 0 0 27.3271 139.822 1 29 992 27.3218 139.866 TD 23 993 27.1527 139.839 1 28 11 265
1985199N08143 1985 54 WP MM JEFF 1985-07-26 06:00:00 TS 27.2069 139.193 992 tokyo main 764 738 OOOO______P___ jtwc_wp WP071985 27.1000 139.200 25 -1 27.3000 139.200 2 992 0 0 0 27.2000 139.200 1 29 992 27.3000 139.200 TD 22 995 27.1346 139.165 1 27 12 265
1985199N08143 1985 54 WP MM JEFF 1985-07-26 09:00:00 TS 27.1481 138.451 main 749 728 PPPP______P___ WP071985 27.0794 138.488 25 -1 27.1955 138.330 2 992 0 0 27.2220 138.539 1 29 992 27.1446 138.438 TD 22 996 27.0992 138.458 1 26 14 262
1985199N08143 1985 54 WP MM JEFF 1985-07-26 12:00:00 TS 27.0200 137.640 992 tokyo main 734 730 OOOO______O___ jtwc_wp WP071985 27.0000 137.700 25 -1 27.0000 137.400 2 992 0 0 0 27.2000 137.800 1 29 992 26.9000 137.600 TD 22 997 27.0000 137.700 1 25 15 256
1985199N08143 1985 54 WP MM JEFF 1985-07-26 15:00:00 TS 26.7795 136.780 main 733 703 PPPP______P___ WP071985 26.7950 136.815 27 -1 26.7446 136.563 2 992 0 0 26.9747 136.980 1 29 992 26.6226 136.693 TD 22 996 26.7605 136.848 1 28 16 250
1985199N08143 1985 54 WP MM JEFF 1985-07-26 18:00:00 TS 26.4507 135.911 992 tokyo main 700 692 OOOO______P___ jtwc_wp WP071985 26.5000 135.900 30 -1 26.4000 135.800 2 992 0 0 0 26.6000 136.100 1 29 992 26.3000 135.800 TD 22 995 26.4537 135.954 1 32 17 244
1985199N08143 1985 54 WP MM JEFF 1985-07-26 21:00:00 TS 26.0507 135.080 main 692 688 PPPP______P___ WP071985 26.1497 135.020 35 0 25.9417 135.142 2 991 0 0 26.1002 135.169 1 33 991 25.9420 135.013 TD 23 995 26.1198 135.058 1 36 17 241
1985199N08143 1985 54 WP MM JEFF 1985-07-27 00:00:00 TS 25.6600 134.300 40 990 tokyo main 688 686 OOOO______O___ jtwc_wp WP071985 25.8000 134.200 40 0 25.5000 134.500 3 40 990 0 8 200 100 0 25.6000 134.300 2 38 990 25.6000 134.300 TD 25 995 25.8000 134.200 2 40 15 243
1985199N08143 1985 54 WP MM JEFF 1985-07-27 03:00:00 TS 25.3542 133.588 main 686 685 PPPP______P___ WP071985 25.5267 133.486 45 0 25.1975 133.758 3 42 990 0 8 200 100 25.2316 133.621 2 43 990 25.3042 133.658 TD 27 995 25.5112 133.416 2 42 14 247
1985199N08143 1985 54 WP MM JEFF 1985-07-27 06:00:00 TS 25.1301 132.895 45 990 tokyo main 693 684 OOOO______P___ jtwc_wp WP071985 25.3000 132.800 50 0 25.0000 133.000 3 45 990 0 8 200 100 0 25.0000 133.000 3 48 990 25.1000 133.000 TD 30 995 25.2506 132.675 2 45 13 254
1985199N08143 1985 54 WP MM JEFF 1985-07-27 09:00:00 TS 24.9749 132.160 main 685 681 PPPP______P___ WP071985 25.0625 132.042 50 0 24.8546 132.293 3 45 990 0 8 200 100 24.9050 132.293 3 48 990 25.0128 132.200 TD 32 994 25.0397 131.972 2 47 13 260
1985199N08143 1985 54 WP MM JEFF 1985-07-27 12:00:00 TS 24.9000 131.440 45 990 tokyo main 684 681 OOOO______O___ jtwc_wp WP071985 24.9000 131.300 50 0 24.8000 131.600 3 45 990 0 8 200 100 0 24.9000 131.600 3 48 990 25.0000 131.400 TS 35 994 24.9000 131.300 2 50 13 266
1985199N08143 1985 54 WP MM JEFF 1985-07-27 15:00:00 TS 24.8860 130.774 main 681 681 PPPP______P___ WP071985 24.8621 130.628 50 0 24.8273 130.893 3 45 990 0 8 200 100 24.8844 131.000 3 48 993 24.9920 130.720 TS 35 993 24.8645 130.628 2 50 12 271
1985199N08143 1985 54 WP MM JEFF 1985-07-27 18:00:00 TS 24.9193 130.137 45 990 tokyo main 683 677 OOOO______P___ jtwc_wp WP071985 24.9000 130.000 50 0 24.9000 130.200 3 45 990 0 8 200 100 0 24.9000 130.400 3 48 996 25.0000 130.100 TS 35 992 24.8966 129.986 2 50 12 274
1985199N08143 1985 54 WP MM JEFF 1985-07-27 21:00:00 TS 24.9699 129.502 main 680 680 PPPP______P___ WP071985 24.9573 129.385 50 0 24.9570 129.550 3 45 990 0 8 200 100 24.9651 129.700 3 48 992 25.0146 129.500 TS 37 991 24.9554 129.375 2 50 11 274
1985199N08143 1985 54 WP MM JEFF 1985-07-28 00:00:00 TS 25.0000 128.880 45 990 tokyo main 692 634 OOOO______O___ jtwc_wp WP071985 25.0000 128.800 50 0 25.0000 128.900 3 45 990 0 8 200 100 0 25.0000 129.000 3 48 988 25.0000 128.900 TS 40 991 25.0000 128.800 2 50 11 269
1985199N08143 1985 54 WP MM JEFF 1985-07-28 03:00:00 TS 24.9506 128.249 main 624 574 PPPP______P___ WP071985 24.9649 128.227 50 0 25.0152 128.177 3 45 987 0 8 200 100 24.9147 128.370 3 53 986 24.9077 128.220 TS 42 987 24.9504 128.251 2 51 11 264
1985199N08143 1985 54 WP MM JEFF 1985-07-28 06:00:00 TS 24.8768 127.668 45 985 tokyo main 574 524 OOOO______P___ jtwc_wp WP071985 24.9000 127.700 50 0 25.0000 127.500 3 45 985 0 8 200 100 0 24.8000 127.800 3 58 984 24.8000 127.600 TS 45 984 24.8839 127.739 2 52 10 262
1985199N08143 1985 54 WP MM JEFF 1985-07-28 09:00:00 TS 24.8098 127.179 main 524 484 PPPP______P___ WP071985 24.8347 127.235 52 0 24.9497 126.947 3 47 985 0 8 200 100 24.7197 127.277 3 58 983 24.7194 127.177 TS 45 983 24.8256 127.257 2 53 8 263
1985199N08143 1985 54 WP MM JEFF 1985-07-28 12:00:00 TS 24.7800 126.740 50 985 tokyo main 474 433 OOOO______O___ jtwc_wp WP071985 24.8000 126.800 55 0 24.9000 126.500 4 50 985 0 1 200 100 0 24.7000 126.800 3 58 982 24.7000 126.800 TS 45 982 24.8000 126.800 2 55 8 270
1985199N08143 1985 54 WP MM JEFF 1985-07-28 15:00:00 TS 24.8141 126.289 main 433 393 PPPP______P___ WP071985 24.8274 126.343 57 0 24.8772 126.135 4 52 982 0 1 200 150 24.7699 126.335 3 58 981 24.7777 126.293 TS 47 981 24.8184 126.337 2 57 8 278
1985199N08143 1985 54 WP MM JEFF 1985-07-28 18:00:00 TS 24.8949 125.860 55 980 tokyo main 393 352 OOOO______P___ jtwc_wp WP071985 24.9000 125.900 60 0 24.9000 125.800 4 55 980 9 25 25 9 200 200 0 24.9000 125.900 3 58 980 24.9000 125.800 STS 50 981 24.8746 125.898 2 60 8 283
1985199N08143 1985 54 WP MM JEFF 1985-07-28 21:00:00 TS 24.9886 125.458 main 352 312 PPPP______P___ WP071985 24.9774 125.485 62 0 24.9700 125.400 4 55 980 9 25 25 9 200 200 25.0348 125.492 3 63 979 24.9922 125.427 STS 52 978 24.9685 125.484 2 62 7 288
1985199N08143 1985 54 WP MM JEFF 1985-07-29 00:00:00 TS 25.1200 125.080 55 980 tokyo main 312 273 OOOO______O___ jtwc_wp WP071985 25.1000 125.100 65 1 25.1000 125.000 4 55 980 9 25 25 9 200 200 0 25.2000 125.100 4 68 978 25.1000 125.100 STS 55 975 25.1000 125.100 3 65 7 294
1985199N08143 1985 54 WP MM JEFF 1985-07-29 03:00:00 TS 25.2905 124.710 main 273 245 PPPP______P___ WP071985 25.2849 124.735 67 1 25.2774 124.635 4 60 977 9 37 37 9 200 200 25.4000 124.678 4 68 974 25.2349 124.757 STS 57 972 25.2554 124.746 3 66 7 300
1985199N08143 1985 54 WP MM JEFF 1985-07-29 06:00:00 TS 25.4894 124.364 65 975 tokyo main 247 221 OOOO______P___ jtwc_wp WP071985 25.5000 124.400 70 1 25.5000 124.300 5 65 975 9 50 50 9 200 200 0 25.6000 124.300 4 68 970 25.4000 124.400 STS 60 970 25.4468 124.420 3 67 7 304
1985199N08143 1985 54 WP MM JEFF 1985-07-29 09:00:00 TS 25.6868 124.055 main 224 201 PPPP______P___ WP071985 25.6924 124.092 70 1 25.7497 124.015 5 67 972 9 50 50 9 200 200 25.7421 124.057 4 68 969 25.5850 124.000 STS 62 970 25.6648 124.108 3 68 7 306
1985199N08143 1985 54 WP MM JEFF 1985-07-29 12:00:00 TS 25.9000 123.740 70 970 tokyo main 197 186 OOOO______O___ jtwc_wp WP071985 25.9000 123.800 70 1 26.0000 123.700 5 70 970 9 50 50 9 200 200 0 25.9000 123.800 4 68 968 25.8000 123.600 T 65 970 25.9000 123.800 4 70 8 305
1985199N08143 1985 54 WP MM JEFF 1985-07-29 15:00:00 TS 26.1282 123.362 main 186 176 PPPP______P___ WP071985 26.1424 123.507 70 1 26.2003 123.242 5 70 970 9 55 55 9 200 200 26.1353 123.350 4 68 968 26.0274 123.242 T 65 970 26.1355 123.467 4 70 8 305
1985199N08143 1985 54 WP MM JEFF 1985-07-29 18:00:00 TS 26.3770 122.987 70 970 tokyo main 185 180 OOOO______P___ jtwc_wp WP071985 26.4000 123.200 70 1 26.4000 122.800 5 70 970 9 60 60 9 200 200 0 26.4000 122.900 4 68 968 26.3000 122.900 T 65 970 26.3849 123.135 4 70 8 310
1985199N08143 1985 54 WP MM JEFF 1985-07-29 21:00:00 TS 26.6468 122.661 main 191 172 PPPP______P___ WP071985 26.6425 122.850 70 1 26.6423 122.505 5 70 970 9 60 60 9 200 200 26.6498 122.612 4 68 968 26.6576 122.528 T 67 970 26.6418 122.811 4 70 8 315
1985199N08143 1985 54 WP MM JEFF 1985-07-30 00:00:00 TS 26.9200 122.380 70 970 tokyo main 172 133 OOOO______O___ jtwc_wp WP071985 26.9000 122.500 70 1 26.9000 122.300 5 70 970 9 60 60 9 200 200 0 26.9000 122.400 4 68 968 27.0000 122.200 T 70 970 26.9000 122.500 4 70 7 318
1985199N08143 1985 54 WP MM JEFF 1985-07-30 03:00:00 TS 27.1696 122.139 main 127 97 PPPP______P___ WP071985 27.2074 122.185 72 1 27.1424 122.135 5 67 970 9 55 55 9 200 162 27.1574 122.200 4 72 966 27.2073 121.977 T 72 967 27.1336 122.198 4 71 6 320
1985199N08143 1985 54 WP MM JEFF 1985-07-30 06:00:00 TS 27.4140 121.922 65 970 tokyo main 97 68 OOOO______P___ jtwc_wp WP071985 27.5000 121.900 75 1 27.4000 122.000 5 65 970 9 50 50 3 200 125 0 27.4000 122.000 4 77 965 27.4000 121.800 T 75 965 27.3698 121.912 4 72 6 322
1985199N08143 1985 54 WP MM JEFF 1985-07-30 09:00:00 TS 27.6582 121.703 main 59 29 PPPP______P___ WP071985 27.6924 121.650 75 1 27.6924 121.872 5 62 972 9 50 50 3 175 102 27.5924 121.765 4 77 965 27.6925 121.585 T 75 965 27.6212 121.645 4 73 6 322
1985199N08143 1985 54 WP MM JEFF 1985-07-30 12:00:00 TS 27.9200 121.480 60 975 tokyo main 29 0 OOOO______O___ jtwc_wp WP071985 27.9000 121.400 75 1 28.0000 121.700 4 60 975 9 50 50 3 150 80 0 27.8000 121.500 4 77 965 28.0000 121.400 T 75 965 27.9000 121.400 4 75 7 322
1985199N08143 1985 54 WP MM JEFF 1985-07-30 15:00:00 TS 28.2093 121.223 main 9 0 PPPP______P___ WP071985 28.2276 121.078 67 1 28.2852 121.400 4 55 980 9 3 137 70 28.0776 121.185 4 67 970 28.2349 121.300 T 67 970 28.2212 121.154 4 67 8 325
1985199N08143 1985 54 WP MM JEFF 1985-07-30 18:00:00 TS 28.5340 120.987 50 985 tokyo main 0 0 OOOO______P___ jtwc_wp WP071985 28.6000 120.800 60 0 28.6000 121.100 4 50 985 0 2 125 60 0 28.4000 120.900 3 58 975 28.5000 121.200 STS 60 975 28.5699 120.933 4 60 8 332
1985199N08143 1985 54 WP MM JEFF 1985-07-30 21:00:00 TS 28.8962 120.812 main 0 0 PPPP______P___ WP071985 28.9499 120.662 52 0 28.9999 120.920 4 47 988 0 2 137 50 28.7199 120.727 3 53 980 28.8776 121.008 STS 50 982 28.9337 120.745 4 52 8 340
1985199N08143 1985 54 WP MM JEFF 1985-07-31 00:00:00 TS 29.2800 120.680 45 992 tokyo main 0 0 OOOO______O___ jtwc_wp WP071985 29.3000 120.600 45 0 29.4000 120.800 3 45 992 0 3 150 40 0 29.1000 120.600 3 48 985 29.3000 120.800 TS 40 990 29.3000 120.600 2 45 8 343
1985199N08143 1985 54 WP MM JEFF 1985-07-31 03:00:00 TS 29.6620 120.552 main 0 0 PPPP______P___ WP071985 29.6500 120.542 42 0 29.7075 120.677 3 42 992 0 3 150 45 29.6000 120.420 3 48 986 29.7150 120.628 TS 40 991 29.6376 120.490 2 42 8 346
1985199N08143 1985 54 WP MM JEFF 1985-07-31 06:00:00 TS 30.0355 120.465 40 992 tokyo main 0 0 OOOO______P___ jtwc_wp WP071985 30.0000 120.500 40 0 30.0000 120.600 3 40 992 0 2 150 50 0 30.1000 120.300 3 48 988 30.1000 120.500 TS 40 992 29.9773 120.425 2 40 7 353
1985199N08143 1985 54 WP MM JEFF 1985-07-31 09:00:00 TS 30.3802 120.436 main 0 0 PPPP______P___ WP071985 30.3425 120.443 37 0 30.3425 120.585 3 37 992 0 2 125 75 30.4725 120.327 3 48 988 30.4150 120.427 TS 37 993 30.3283 120.397 2 37 7 0
1985199N08143 1985 54 WP MM JEFF 1985-07-31 12:00:00 TS 30.7200 120.440 35 992 tokyo main 0 0 OOOO______O___ jtwc_wp WP071985 30.7000 120.400 35 0 30.7000 120.600 3 35 992 0 9 100 100 0 30.8000 120.400 3 48 988 30.7000 120.400 TS 35 994 30.7000 120.400 2 35 7 0
1985199N08143 1985 54 WP MM JEFF 1985-07-31 15:00:00 TS 31.0782 120.413 main 0 0 PPPP______P___ WP071985 31.0850 120.378 32 -1 31.0575 120.585 3 35 994 0 9 100 100 31.1648 120.356 3 48 988 30.9924 120.363 TS 35 994 31.0910 120.386 2 33 7 0
1985199N08143 1985 54 WP MM JEFF 1985-07-31 18:00:00 TS 31.4409 120.441 35 996 tokyo main 0 0 OOOO______P___ jtwc_wp WP071985 31.5000 120.400 30 -1 31.4000 120.600 3 35 996 0 9 100 100 0 31.5000 120.400 3 48 988 31.3000 120.400 TS 35 994 31.5046 120.404 2 32 7 11
1985199N08143 1985 54 WP MM JEFF 1985-07-31 21:00:00 TS 31.7773 120.583 main 0 0 PPPP______P___ WP071985 31.9350 120.470 30 -1 31.6775 120.685 3 35 996 0 9 100 100 31.7129 120.735 3 48 988 31.6200 120.555 TS 37 993 31.9409 120.471 2 31 8 22
1985199N08143 1985 54 WP MM JEFF 1985-08-01 00:00:00 TS 32.1600 120.780 35 996 tokyo main 0 0 OOOO______O___ jtwc_wp WP071985 32.4000 120.600 30 -1 32.0000 120.800 3 35 996 0 9 100 100 0 32.0000 121.100 3 48 988 32.0000 120.800 TS 40 992 32.4000 120.600 1 30 9 20
1985199N08143 1985 54 WP MM JEFF 1985-08-01 03:00:00 TS 32.6412 120.947 main 0 0 PPPP______P___ WP071985 32.8924 120.763 32 -1 32.4550 120.907 3 35 995 0 9 100 75 32.5772 121.201 3 48 988 32.4473 121.056 TS 40 991 32.8341 120.807 1 33 11 17
1985199N08143 1985 54 WP MM JEFF 1985-08-01 06:00:00 TS 33.1791 121.155 35 994 tokyo main 43 43 OOOO______P___ jtwc_wp WP071985 33.4000 121.000 35 0 33.0000 121.000 3 35 994 0 2 100 50 0 33.2000 121.300 3 48 988 33.0000 121.400 TS 40 990 33.2955 121.076 1 37 11 22
1985199N08143 1985 54 WP MM JEFF 1985-08-01 09:00:00 TS 33.6933 121.443 main 77 77 PPPP______P___ WP071985 33.8627 121.343 40 0 33.5550 121.036 3 40 994 0 2 100 50 33.5769 121.555 3 48 988 33.6629 121.899 TS 42 989 33.8091 121.382 1 41 12 25
1985199N08143 1985 54 WP MM JEFF 1985-08-01 12:00:00 TS 34.2800 121.780 45 994 tokyo main 137 137 OOOO______O___ jtwc_wp WP071985 34.4000 121.700 45 0 34.2000 121.100 3 45 994 0 2 100 50 0 34.0000 122.000 3 48 988 34.4000 122.400 TS 45 988 34.4000 121.700 2 45 14 25
1985199N08143 1985 54 WP MM JEFF 1985-08-01 15:00:00 TS 34.9898 122.158 main 182 123 PPPP______P___ WP071985 35.1048 121.951 47 0 34.9697 121.234 3 45 993 0 2 100 75 34.6545 122.856 3 48 988 35.1347 122.739 TS 45 988 35.0853 122.008 2 45 16 22
1985199N08143 1985 54 WP MM JEFF 1985-08-01 18:00:00 TS 35.7802 122.529 45 992 tokyo main 112 37 OOOO______P___ jtwc_wp WP071985 35.9000 122.200 50 0 35.8000 121.500 3 45 992 0 9 100 100 0 35.5000 123.500 3 48 988 35.9000 123.000 TS 45 988 35.8477 122.307 2 45 17 16
1985199N08143 1985 54 WP MM JEFF 1985-08-01 21:00:00 TS 36.6292 122.722 main 37 17 PPPP______P___ WP071985 36.7028 122.523 47 0 36.5997 121.918 3 45 992 0 9 100 100 36.5578 123.148 3 43 988 36.6774 123.258 TS 42 989 36.6613 122.603 2 45 17 9
1985199N08143 1985 54 WP MM JEFF 1985-08-02 00:00:00 TS 37.5000 122.854 45 992 tokyo main 34 34 OOOO______O___ jtwc_wp WP071985 37.5000 122.900 45 0 37.4000 122.500 3 45 992 0 9 100 100 0 37.6000 122.700 2 38 988 37.5000 123.500 TS 40 990 37.5000 122.900 2 45 17 14
1985199N08143 1985 54 WP MM JEFF 1985-08-02 03:00:00 TS 38.2521 123.223 main 123 85 _PPP__________ WP071985 -1 38.1694 123.178 3 40 992 0 9 100 100 38.2694 123.007 2 38 989 38.3826 123.746 TS 37 991 2 17 27
1985199N08143 1985 54 WP MM JEFF 1985-08-02 06:00:00 TS 39.0333 123.867 35 992 tokyo main 88 0 _OOO__________ -1 39.0000 124.000 3 35 992 0 9 100 100 0 39.0000 123.700 2 38 990 39.3000 124.000 TS 35 992 2 22 32
1985199N08143 1985 54 WP MM JEFF 1985-08-02 09:00:00 TS 40.0794 124.714 main 0 0 _PP___________ -1 39.9317 124.929 3 993 0 9 40.2272 124.500 2 33 991 TS 2 26 33
1985199N08143 1985 54 WP MM JEFF 1985-08-02 12:00:00 MX 41.2500 125.750 994 tokyo main 0 0 _OO___________ -1 41.0000 126.000 6 994 0 0 0 41.5000 125.500 1 29 992 27 38
1985199N08143 1985 54 WP MM JEFF 1985-08-02 15:00:00 MX 42.2332 126.941 main 0 0 _PP___________ -1 42.2125 127.214 6 995 0 0 42.2538 126.667 1 29 993 27 40
1985199N08143 1985 54 WP MM JEFF 1985-08-02 18:00:00 MX 43.3500 128.150 996 tokyo main 0 0 _OO___________ -1 43.5000 128.500 6 996 0 0 0 43.2000 127.800 1 29 994 32 30
1985199N08143 1985 54 WP MM JEFF 1985-08-02 21:00:00 MX 45.0403 129.132 main 0 0 _PP___________ -1 44.8620 129.784 6 996 0 0 45.2186 128.481 1 29 995 35 25
1985199N08143 1985 54 WP MM JEFF 1985-08-03 00:00:00 MX 46.5000 130.250 996 tokyo main 0 0 _OO___________ -1 46.0000 131.000 6 996 0 0 0 47.0000 129.500 1 29 996 28 42
1985199N08143 1985 54 WP MM JEFF 1985-08-03 03:00:00 MX 47.0680 131.831 main 0 0 _PP___________ -1 46.6852 132.043 6 996 0 0 47.4507 131.618 1 29 996 23 77
1985199N08143 1985 54 WP MM JEFF 1985-08-03 06:00:00 MX 47.0000 133.500 996 tokyo main 0 0 _OO___________ -1 47.0000 133.000 6 996 0 0 0 47.0000 134.000 1 29 996 22 103
1985199N08143 1985 54 WP MM JEFF 1985-08-03 09:00:00 MX 46.5635 134.958 main 0 0 _PP___________ -1 47.0650 133.987 6 998 0 0 46.0621 135.929 1 29 997 22 119
1985199N08143 1985 54 WP MM JEFF 1985-08-03 12:00:00 MX 45.9500 136.250 1000 tokyo main 0 _OO___________ -1 47.0000 135.000 6 1000 0 0 0 44.9000 137.500 1 29 998 22 124

デジタル台風データ・検索

IBTrACS Databaseについて

本データベースは、米国NOAAが公開する1842年以降の世界の熱帯低気圧のベストトラックデータアーカイブInternational Best Track Archive for Climate Stewardship (IBTrACS)を、ウェブで閲覧しやすい形式に変換したものです。

最終更新日:2021-12-06